map of ANU home
ANU - Airport
Location
City:  Antigua, Antigua Island, Antigua and Barbuda
Near (Alt.):Saint John's
Name:V.C. Bird International Airport
Old (Alt.):Coolidge International, Coolidge AFB
ICAO:TAPA
IATA:ANU

Details
Type:Airport (Aerodrome, Airfield)
Use:Military, International (customs port of entry)
Latitude:1708'12"N (17.136667)
Longitude:6147'34"W (-61.792777)
Elevation:62 ft (19 m)
Variation:14.76W (WMM2015 magnetic declination)
-0.02 annual change
Runways:1
Longest:8980 × 148 ft (2737 × 45 m)

Time
Time Zone:UTC-4
Local Time:

Weather
METAR:TAPA 230800Z 07008KT 9999 FEW018 26/22 Q1013 NOSIG
TAF:TAPA 221800Z 2218/2318 06015KT 9999 FEW018 BKN036 PROB30
TEMPO 2218/2223 SHRA BKN014 PROB30
TEMPO 2223/2318 SHRA TAF TRPG 221800Z 2218/2318 09015KT 9999 FEW018 BKN036 PROB30
TEMPO 2218/2223 SHRA BKN014 PROB30
TEMPO 2223/2318 SHRA TAF TQPF 221800Z 2218/2318 06015KT 9999 FEW018 BKN036 PROB30
TEMPO 2218/2223 SHRA BKN014 PROB30
TEMPO 2223/2318 SHRA TAF TUPJ 221800Z 2218/2318 06015KT 9999 FEW018 BKN036 PROB30
TEMPO 2218/2223 SHRA BKN014 PROB30
TEMPO 2223/2318 SHRA TAF TKPN 221800Z 2218/2318 06015KT 9999 FEW018 BKN036 PROB30
TEMPO 2218/2223 SHRA BKN014 PROB30
TEMPO 2223/2318 SHRA

Related Locations
Nearby:
Farthest:PRD: 12208 mi / 19647 km
Pardoo, WA, AU

Find:

   beyond  
but within

Other Information
Maps:
NOTAMs:
Links:
Sources:

  
flag of Antigua and Barbuda   

Airport Diagram

Airport diagram for ANU

Airport diagram PDF

Sectional Chart

Flight Planning
at skyvector.com

Satellite Image

Google Maps Satellite view

 

Copyright © 2004-2017 Karl L. Swartz. All rights reserved.
The Great Circle Mapper name and logo are trademarks of the Great Circle Mapper.
All other trademarks mentioned herein belong to their respective owners.
Please see credits for attibutions and further copyright information.

  Follow gcmap on Facebook Follow gcmap on Twitter Follow gcmap on Google+ GCmap on LinkedIn

hCard Microformat

Geo Microformat